createdAt,value
2017-07-28T00:01:57.296Z,4.17
2017-07-28T00:04:25.591Z,5.23
2017-07-28T00:06:54.453Z,3.90
2017-07-28T00:09:22.746Z,4.33
2017-07-28T00:11:51.064Z,5.10
2017-07-28T00:14:19.649Z,4.67
2017-07-28T00:16:47.941Z,4.50
2017-07-28T00:19:16.296Z,5.63
2017-07-28T00:21:44.911Z,5.13
2017-07-28T00:24:13.499Z,4.70
2017-07-28T00:26:41.889Z,5.10
2017-07-28T00:29:10.510Z,5.30
2017-07-28T00:31:40.321Z,5.50
2017-07-28T00:34:10.607Z,5.37
2017-07-28T00:36:39.806Z,5.53
2017-07-28T00:39:08.079Z,5.37
2017-07-28T00:41:37.036Z,5.50
2017-07-28T00:44:06.330Z,5.10
2017-07-28T00:46:35.389Z,6.17
2017-07-28T00:49:03.698Z,5.93
2017-07-28T00:51:32.247Z,5.70
2017-07-28T00:54:00.564Z,6.03
2017-07-28T00:56:29.450Z,5.47
2017-07-28T00:58:58.325Z,6.63
2017-07-28T01:01:26.627Z,6.20
2017-07-28T01:03:58.944Z,7.03
2017-07-28T01:06:27.985Z,6.80
2017-07-28T01:08:56.254Z,6.60
2017-07-28T01:11:24.848Z,7.50
2017-07-28T01:13:53.161Z,7.37
2017-07-28T01:16:21.547Z,7.07
2017-07-28T01:18:50.083Z,8.43
2017-07-28T01:21:18.388Z,7.37
2017-07-28T01:23:46.751Z,8.10
2017-07-28T01:26:15.964Z,7.43
2017-07-28T01:28:44.274Z,8.13
2017-07-28T01:31:12.553Z,9.00
2017-07-28T01:33:41.423Z,9.53
2017-07-28T01:36:10.319Z,8.73
2017-07-28T01:38:38.624Z,9.13
2017-07-28T01:41:07.923Z,8.30
2017-07-28T01:43:36.197Z,8.40
2017-07-28T01:46:04.598Z,10.00
2017-07-28T01:48:33.160Z,8.23
2017-07-28T01:51:03.364Z,8.83
2017-07-28T01:53:31.772Z,9.07
2017-07-28T01:56:00.366Z,7.90
2017-07-28T01:58:29.373Z,9.10
2017-07-28T02:00:57.686Z,9.20
2017-07-28T02:03:27.989Z,8.17
2017-07-28T02:05:56.816Z,10.10
2017-07-28T02:08:25.627Z,9.13
2017-07-28T02:10:54.550Z,9.37
2017-07-28T02:13:22.948Z,9.70
2017-07-28T02:15:51.243Z,9.30
2017-07-28T02:18:19.865Z,9.80
2017-07-28T02:20:49.012Z,9.47
2017-07-28T02:23:17.307Z,9.20
2017-07-28T02:25:45.902Z,9.83
2017-07-28T02:28:14.568Z,9.77
2017-07-28T02:30:44.006Z,10.20
2017-07-28T02:33:12.677Z,10.30
2017-07-28T02:35:41.395Z,9.93
2017-07-28T02:38:10.490Z,9.30
2017-07-28T02:40:39.178Z,11.07
2017-07-28T02:43:07.566Z,10.37
2017-07-28T02:45:36.610Z,9.60
2017-07-28T02:48:05.248Z,10.60
2017-07-28T02:50:34.317Z,11.30
2017-07-28T02:53:02.916Z,11.70
2017-07-28T02:55:31.530Z,11.73
2017-07-28T02:58:01.009Z,13.67
2017-07-28T03:00:29.812Z,11.57
2017-07-28T03:02:58.517Z,12.17
2017-07-28T03:05:26.831Z,14.20
2017-07-28T03:07:56.037Z,13.80
2017-07-28T03:10:25.488Z,14.50
2017-07-28T03:12:53.815Z,14.40
2017-07-28T03:15:23.110Z,14.23
2017-07-28T03:17:52.476Z,13.93
2017-07-28T03:20:20.776Z,14.37
2017-07-28T03:22:49.700Z,16.30
2017-07-28T03:25:19.059Z,14.80
2017-07-28T03:27:48.260Z,16.10
2017-07-28T03:30:16.559Z,15.10
2017-07-28T03:32:45.811Z,18.27
2017-07-28T03:35:14.634Z,15.80
2017-07-28T03:37:42.949Z,15.47
2017-07-28T03:40:11.651Z,15.87
2017-07-28T03:42:40.579Z,14.47
2017-07-28T03:45:09.584Z,16.20
2017-07-28T03:47:38.209Z,16.90
2017-07-28T03:50:06.908Z,15.20
2017-07-28T03:52:35.167Z,15.80
2017-07-28T03:55:03.764Z,16.90
2017-07-28T03:57:32.844Z,19.20
2017-07-28T04:00:01.165Z,17.90
2017-07-28T04:02:29.739Z,16.33
2017-07-28T04:04:58.043Z,16.53
2017-07-28T04:07:27.104Z,18.20
2017-07-28T04:09:55.699Z,16.83
2017-07-28T04:12:25.014Z,19.40
2017-07-28T04:14:53.748Z,18.67
2017-07-28T04:17:23.729Z,18.10
2017-07-28T04:19:52.743Z,17.93
2017-07-28T04:22:21.797Z,19.60
2017-07-28T04:24:52.037Z,20.37
2017-07-28T04:27:21.180Z,17.90
2017-07-28T04:29:50.219Z,17.37
2017-07-28T04:32:18.830Z,19.37
2017-07-28T04:34:47.205Z,18.47
2017-07-28T04:37:15.514Z,17.07
2017-07-28T04:39:44.609Z,16.87
2017-07-28T04:42:12.901Z,19.80
2017-07-28T04:44:41.998Z,16.47
2017-07-28T04:47:10.568Z,17.23
2017-07-28T04:49:39.562Z,18.30
2017-07-28T04:52:07.893Z,16.37
2017-07-28T04:54:36.434Z,18.70
2017-07-28T04:57:05.853Z,19.30
2017-07-28T04:59:35.064Z,17.83
2017-07-28T05:02:03.825Z,17.63
2017-07-28T05:04:32.460Z,16.80
2017-07-28T05:07:00.763Z,15.83
2017-07-28T05:09:29.392Z,18.50
2017-07-28T05:11:57.707Z,17.10
2017-07-28T05:14:27.146Z,17.30
2017-07-28T05:16:55.739Z,16.40
2017-07-28T05:19:24.953Z,18.83
2017-07-28T05:21:53.261Z,15.83
2017-07-28T05:24:22.382Z,17.27
2017-07-28T05:26:51.066Z,15.33
2017-07-28T05:29:19.373Z,15.67
2017-07-28T05:31:48.765Z,16.17
2017-07-28T05:34:17.746Z,17.77
2017-07-28T05:36:46.117Z,17.40
2017-07-28T05:39:14.737Z,16.07
2017-07-28T05:41:43.784Z,15.83
2017-07-28T05:44:12.243Z,15.87
2017-07-28T05:46:40.804Z,16.00
2017-07-28T05:49:09.891Z,16.63
2017-07-28T05:51:38.185Z,15.00
2017-07-28T05:54:11.905Z,14.03
2017-07-28T05:56:40.543Z,16.33
2017-07-28T05:59:08.830Z,14.63
2017-07-28T06:01:37.435Z,15.93
2017-07-28T06:04:06.544Z,13.93
2017-07-28T06:06:34.869Z,14.90
2017-07-28T06:09:03.500Z,14.90
2017-07-28T06:11:31.895Z,14.47
2017-07-28T06:14:00.457Z,13.57
2017-07-28T06:16:29.074Z,13.97
2017-07-28T06:18:58.069Z,13.37
2017-07-28T06:21:26.510Z,12.83
2017-07-28T06:23:56.468Z,13.43
2017-07-28T06:26:24.674Z,13.67
2017-07-28T06:28:54.526Z,12.33
2017-07-28T06:31:23.881Z,11.87
2017-07-28T06:33:53.736Z,10.67
2017-07-28T06:36:22.897Z,11.37
2017-07-28T06:38:51.997Z,10.93
2017-07-28T06:41:20.281Z,10.13
2017-07-28T06:43:48.720Z,9.00
2017-07-28T06:46:17.390Z,9.37
2017-07-28T06:48:46.435Z,8.63
2017-07-28T06:51:14.719Z,10.23
2017-07-28T06:53:43.727Z,8.17
2017-07-28T06:56:12.841Z,7.37
2017-07-28T06:58:41.361Z,7.97
2017-07-28T07:01:10.660Z,6.90
2017-07-28T07:03:38.947Z,7.00
2017-07-28T07:06:07.240Z,6.93
2017-07-28T07:08:35.856Z,7.57
2017-07-28T07:11:04.192Z,7.37
2017-07-28T07:13:32.497Z,6.90
2017-07-28T07:16:01.123Z,7.00
2017-07-28T07:18:29.717Z,7.33
2017-07-28T07:20:58.148Z,6.23
2017-07-28T07:23:28.149Z,7.40
2017-07-28T07:25:57.421Z,5.70
2017-07-28T07:28:29.101Z,5.30
2017-07-28T07:30:57.437Z,6.00
2017-07-28T07:33:25.776Z,5.27
2017-07-28T07:35:55.275Z,7.00
2017-07-28T07:38:24.094Z,5.47
2017-07-28T07:40:54.396Z,5.10
2017-07-28T07:43:23.077Z,5.20
2017-07-28T07:45:51.528Z,5.13
2017-07-28T07:48:21.022Z,4.87
2017-07-28T07:50:49.726Z,5.33
2017-07-28T07:53:18.038Z,4.20
2017-07-28T07:55:47.853Z,4.87
2017-07-28T07:58:17.698Z,4.70
2017-07-28T08:00:47.298Z,4.73
2017-07-28T08:03:16.404Z,6.10
2017-07-28T08:05:45.094Z,5.10
2017-07-28T08:08:13.454Z,4.70
2017-07-28T08:10:42.149Z,4.60
2017-07-28T08:13:11.294Z,4.70
2017-07-28T08:15:40.991Z,4.57
2017-07-28T08:18:10.445Z,3.80
2017-07-28T08:20:40.175Z,4.47
2017-07-28T08:23:10.761Z,3.50
2017-07-28T08:25:41.406Z,4.53
2017-07-28T08:28:11.012Z,4.28
2017-07-28T08:30:40.524Z,3.80
2017-07-28T08:33:10.387Z,4.20
2017-07-28T08:35:39.902Z,4.60
2017-07-28T08:38:09.467Z,3.87
2017-07-28T08:40:39.333Z,4.10
2017-07-28T08:43:09.573Z,3.50
2017-07-28T08:45:39.386Z,3.23
2017-07-28T08:48:08.898Z,3.13
2017-07-28T08:50:40.162Z,2.57
2017-07-28T08:53:09.758Z,3.53
2017-07-28T08:55:39.349Z,3.93
2017-07-28T08:58:09.164Z,2.73
2017-07-28T09:00:39.068Z,2.90
2017-07-28T09:03:08.579Z,3.47
2017-07-28T09:05:38.513Z,3.10
2017-07-28T09:08:08.035Z,2.27
2017-07-28T09:10:37.580Z,2.80
2017-07-28T09:13:07.479Z,2.70
2017-07-28T09:15:37.074Z,2.93
2017-07-28T09:18:08.595Z,2.70
2017-07-28T09:20:37.495Z,3.27
2017-07-28T09:23:07.162Z,3.43
2017-07-28T09:25:36.752Z,3.30
2017-07-28T09:28:05.646Z,3.03
2017-07-28T09:30:35.033Z,2.60
2017-07-28T09:33:04.921Z,2.80
2017-07-28T09:35:33.237Z,3.10
2017-07-28T09:38:01.533Z,2.70
2017-07-28T09:40:29.886Z,2.50
2017-07-28T09:42:59.300Z,2.23
2017-07-28T09:45:28.085Z,2.60
2017-07-28T09:48:00.142Z,3.00
2017-07-28T09:50:30.928Z,3.57
2017-07-28T09:53:00.375Z,3.33
2017-07-28T09:55:28.754Z,2.93
2017-07-28T09:57:58.386Z,3.00
2017-07-28T10:00:28.028Z,3.40
2017-07-28T10:02:57.825Z,3.07
2017-07-28T10:05:27.541Z,3.50
2017-07-28T10:07:56.590Z,2.80
2017-07-28T10:10:25.660Z,2.97
2017-07-28T10:12:54.557Z,2.50
2017-07-28T10:15:23.202Z,2.80
2017-07-28T10:17:51.920Z,2.80
2017-07-28T10:20:21.497Z,4.17
2017-07-28T10:22:51.595Z,2.80
2017-07-28T10:25:20.578Z,3.63
2017-07-28T10:27:50.618Z,2.90
2017-07-28T10:30:19.963Z,3.60
2017-07-28T10:32:48.284Z,6.20
2017-07-28T10:35:16.667Z,5.40
2017-07-28T10:37:45.347Z,3.20
2017-07-28T10:40:13.635Z,2.73
2017-07-28T10:42:43.303Z,2.90
2017-07-28T10:45:12.146Z,3.43
2017-07-28T10:47:40.753Z,3.13
2017-07-28T10:50:09.810Z,2.63
2017-07-28T10:52:40.684Z,3.00
2017-07-28T10:55:10.212Z,3.23
2017-07-28T10:57:40.491Z,2.90
2017-07-28T11:00:08.953Z,3.83
2017-07-28T11:02:37.305Z,3.70
2017-07-28T11:05:06.723Z,7.77
2017-07-28T11:07:35.053Z,4.37
2017-07-28T11:10:03.453Z,3.80
2017-07-28T11:12:32.054Z,4.07
2017-07-28T11:15:01.145Z,3.00
2017-07-28T11:17:30.090Z,3.10
2017-07-28T11:20:00.262Z,4.20
2017-07-28T11:22:28.757Z,3.03
2017-07-28T11:24:58.256Z,4.07
2017-07-28T11:27:26.849Z,4.70
2017-07-28T11:29:55.973Z,3.70
2017-07-28T11:32:25.217Z,3.90
2017-07-28T11:34:53.808Z,3.80
2017-07-28T11:37:28.474Z,3.60
2017-07-28T11:39:57.858Z,3.57
2017-07-28T11:42:26.170Z,3.33
2017-07-28T11:44:55.226Z,3.90
2017-07-28T11:47:23.728Z,4.13
2017-07-28T11:49:52.463Z,3.90
2017-07-28T11:52:20.764Z,3.93
2017-07-28T11:54:50.030Z,4.37
2017-07-28T11:57:18.371Z,3.62
2017-07-28T11:59:47.258Z,3.60
2017-07-28T12:02:16.275Z,4.50
2017-07-28T12:04:45.347Z,4.17
2017-07-28T12:07:14.485Z,4.57
2017-07-28T12:09:42.991Z,4.50
2017-07-28T12:12:11.729Z,4.27
2017-07-28T12:14:41.488Z,3.47
2017-07-28T12:17:11.115Z,4.13
2017-07-28T12:19:39.728Z,4.93
2017-07-28T12:22:08.310Z,4.90
2017-07-28T12:24:36.617Z,5.77
2017-07-28T12:27:05.127Z,4.00
2017-07-28T12:29:33.740Z,4.53
2017-07-28T12:32:02.024Z,4.50
2017-07-28T12:34:30.752Z,5.50
2017-07-28T12:36:59.933Z,5.83
2017-07-28T12:39:28.992Z,4.87
2017-07-28T12:41:57.312Z,4.63
2017-07-28T12:44:25.947Z,5.53
2017-07-28T12:46:54.256Z,5.17
2017-07-28T12:49:22.548Z,4.13
2017-07-28T12:51:51.281Z,4.20
2017-07-28T12:54:19.555Z,4.70
2017-07-28T12:56:47.894Z,4.50
2017-07-28T12:59:27.653Z,5.47
2017-07-28T13:01:55.924Z,4.47
2017-07-28T13:04:25.720Z,5.73
2017-07-28T13:06:54.832Z,5.23
2017-07-28T13:09:23.806Z,5.03
2017-07-28T13:11:53.768Z,4.83
2017-07-28T13:14:23.254Z,6.10
2017-07-28T13:16:52.685Z,5.30
2017-07-28T13:19:22.697Z,4.97
2017-07-28T13:21:50.989Z,5.10
2017-07-28T13:24:20.634Z,4.40
2017-07-28T13:26:49.557Z,5.20
2017-07-28T13:29:19.024Z,4.50
2017-07-28T13:31:48.630Z,4.47
2017-07-28T13:34:17.499Z,4.80
2017-07-28T13:36:47.351Z,3.97
2017-07-28T13:39:16.140Z,4.23
2017-07-28T13:41:44.762Z,4.17
2017-07-28T13:44:13.162Z,3.73
2017-07-28T13:46:47.504Z,5.93
2017-07-28T13:49:15.783Z,4.43
2017-07-28T13:51:44.851Z,3.90
2017-07-28T13:54:13.416Z,3.93
2017-07-28T13:56:41.862Z,4.20
2017-07-28T13:59:10.802Z,5.47
2017-07-28T14:01:40.500Z,4.23
2017-07-28T14:04:08.929Z,4.20
2017-07-28T14:06:37.481Z,5.37
2017-07-28T14:09:06.108Z,4.47
2017-07-28T14:11:35.121Z,4.13
2017-07-28T14:14:04.981Z,3.77
2017-07-28T14:16:33.612Z,5.10
2017-07-28T14:19:04.032Z,3.57
2017-07-28T14:21:32.645Z,3.77
2017-07-28T14:24:02.016Z,5.57
2017-07-28T14:26:30.886Z,4.00
2017-07-28T14:29:01.000Z,3.93
2017-07-28T14:31:29.660Z,3.37
2017-07-28T14:33:58.955Z,3.73
2017-07-28T14:36:27.466Z,4.53
2017-07-28T14:38:57.481Z,3.07
2017-07-28T14:41:26.348Z,4.03
2017-07-28T14:43:55.435Z,3.40
2017-07-28T14:46:24.010Z,2.97
2017-07-28T14:48:52.341Z,2.80
2017-07-28T14:51:23.749Z,2.97
2017-07-28T14:53:54.882Z,2.13
2017-07-28T14:56:23.746Z,3.20
2017-07-28T14:58:53.248Z,2.20
2017-07-28T15:01:22.430Z,2.28
2017-07-28T15:03:50.699Z,2.47
2017-07-28T15:06:20.148Z,2.40
2017-07-28T15:08:50.151Z,2.20
2017-07-28T15:11:18.688Z,2.30
2017-07-28T15:13:49.347Z,3.57
2017-07-28T15:16:17.965Z,2.47
2017-07-28T15:18:46.282Z,2.80
2017-07-28T15:21:14.902Z,3.20
2017-07-28T15:23:44.219Z,3.53
2017-07-28T15:26:13.436Z,2.27
2017-07-28T15:28:43.618Z,2.30
2017-07-28T15:31:11.784Z,2.27
2017-07-28T15:33:41.451Z,1.97
2017-07-28T15:36:10.617Z,2.70
2017-07-28T15:38:38.923Z,2.13
2017-07-28T15:41:07.545Z,2.20
2017-07-28T15:43:35.876Z,1.80
2017-07-28T15:46:04.169Z,2.57
2017-07-28T15:48:33.589Z,3.00
2017-07-28T15:51:02.405Z,2.97
2017-07-28T15:53:31.769Z,2.67
2017-07-28T15:56:01.040Z,2.50
2017-07-28T15:58:29.373Z,2.67
2017-07-28T16:00:57.707Z,3.13
2017-07-28T16:03:27.348Z,3.23
2017-07-28T16:05:56.287Z,3.30
2017-07-28T16:08:26.901Z,2.83
2017-07-28T16:10:56.572Z,2.33
2017-07-28T16:13:24.883Z,3.70
2017-07-28T16:15:53.182Z,2.93
2017-07-28T16:18:21.506Z,2.77
2017-07-28T16:20:50.769Z,2.47
2017-07-28T16:23:20.167Z,2.53
2017-07-28T16:25:49.119Z,3.33
2017-07-28T16:28:17.409Z,2.43
2017-07-28T16:30:46.637Z,3.13
2017-07-28T16:33:21.560Z,3.00
2017-07-28T16:35:51.162Z,2.07
2017-07-28T16:38:19.511Z,2.93
2017-07-28T16:40:48.864Z,2.67
2017-07-28T16:43:17.202Z,3.27
2017-07-28T16:45:46.737Z,2.60
2017-07-28T16:48:16.010Z,3.40
2017-07-28T16:50:45.376Z,3.20
2017-07-28T16:53:14.844Z,3.10
2017-07-28T16:55:43.604Z,2.50
2017-07-28T16:58:12.463Z,3.13
2017-07-28T17:00:41.771Z,3.30
2017-07-28T17:03:10.038Z,2.80
2017-07-28T17:05:38.887Z,2.63
2017-07-28T17:08:08.268Z,2.90
2017-07-28T17:10:37.063Z,3.07
2017-07-28T17:13:05.619Z,3.00
2017-07-28T17:15:33.919Z,3.00
2017-07-28T17:18:03.224Z,2.53
2017-07-28T17:20:31.903Z,2.43
2017-07-28T17:23:00.939Z,2.77
2017-07-28T17:25:29.641Z,2.90
2017-07-28T17:27:58.979Z,2.73
2017-07-28T17:30:27.278Z,3.30
2017-07-28T17:32:56.308Z,2.80
2017-07-28T17:35:25.145Z,3.03
2017-07-28T17:37:55.970Z,3.50
2017-07-28T17:40:24.627Z,3.70
2017-07-28T17:42:53.317Z,2.80
2017-07-28T17:45:21.592Z,3.27
2017-07-28T17:47:50.502Z,2.73
2017-07-28T17:50:19.091Z,3.03
2017-07-28T17:52:48.633Z,3.03
2017-07-28T17:55:17.722Z,2.60
2017-07-28T17:57:46.127Z,2.60
2017-07-28T18:00:15.181Z,2.73
2017-07-28T18:02:44.764Z,2.90
2017-07-28T18:05:13.035Z,3.07
2017-07-28T18:07:41.832Z,3.70
2017-07-28T18:10:10.838Z,3.53
2017-07-28T18:12:39.160Z,3.60
2017-07-28T18:15:09.492Z,3.10
2017-07-28T18:17:38.774Z,3.13
2017-07-28T18:20:07.671Z,3.70
2017-07-28T18:22:36.394Z,3.80
2017-07-28T18:25:06.136Z,2.80
2017-07-28T18:27:35.580Z,3.07
2017-07-28T18:30:04.458Z,2.67
2017-07-28T18:32:33.529Z,3.30
2017-07-28T18:35:01.944Z,4.10
2017-07-28T18:37:30.237Z,4.37
2017-07-28T18:40:00.014Z,4.23
2017-07-28T18:42:28.301Z,5.93
2017-07-28T18:44:56.647Z,4.47
2017-07-28T18:47:27.120Z,5.57
2017-07-28T18:49:55.463Z,4.33
2017-07-28T18:52:25.643Z,5.83
2017-07-28T18:54:54.979Z,6.70
2017-07-28T18:57:23.712Z,7.00
2017-07-28T18:59:52.938Z,5.33
2017-07-28T19:02:22.367Z,6.30
2017-07-28T19:04:51.710Z,8.60
2017-07-28T19:07:20.085Z,9.30
2017-07-28T19:09:49.162Z,9.27
2017-07-28T19:12:18.363Z,8.37
2017-07-28T19:14:47.388Z,12.53
2017-07-28T19:17:17.000Z,12.90
2017-07-28T19:19:47.442Z,10.33
2017-07-28T19:22:18.208Z,9.77
2017-07-28T19:24:46.934Z,10.50
2017-07-28T19:27:15.313Z,8.83
2017-07-28T19:29:44.019Z,9.13
2017-07-28T19:32:13.833Z,8.87
2017-07-28T19:34:42.459Z,8.80
2017-07-28T19:37:11.820Z,8.00
2017-07-28T19:39:40.116Z,8.87
2017-07-28T19:42:09.594Z,10.27
2017-07-28T19:44:37.912Z,11.70
2017-07-28T19:47:07.030Z,9.03
2017-07-28T19:49:36.634Z,12.17
2017-07-28T19:52:05.128Z,10.60
2017-07-28T19:54:33.783Z,10.60
2017-07-28T19:57:02.433Z,10.67
2017-07-28T19:59:31.615Z,11.33
2017-07-28T20:02:00.010Z,9.17
2017-07-28T20:04:28.805Z,9.17
2017-07-28T20:06:58.599Z,9.40
2017-07-28T20:09:28.166Z,8.30
2017-07-28T20:11:56.510Z,9.13
2017-07-28T20:14:26.941Z,8.63
2017-07-28T20:16:55.267Z,7.90
2017-07-28T20:19:23.870Z,8.87
2017-07-28T20:21:53.815Z,7.67
2017-07-28T20:24:23.200Z,7.57
2017-07-28T20:26:52.380Z,6.30
2017-07-28T20:29:20.884Z,6.40
2017-07-28T20:31:50.621Z,7.00
2017-07-28T20:34:19.681Z,6.67
2017-07-28T20:36:48.408Z,8.90
2017-07-28T20:39:17.152Z,8.30
2017-07-28T20:41:46.197Z,8.17
2017-07-28T20:44:16.196Z,8.40
2017-07-28T20:46:44.493Z,8.83
2017-07-28T20:49:13.888Z,8.37
2017-07-28T20:51:43.123Z,8.30
2017-07-28T20:54:12.604Z,7.03
2017-07-28T20:56:41.210Z,7.47
2017-07-28T20:59:10.394Z,7.20
2017-07-28T21:01:39.075Z,7.03
2017-07-28T21:04:07.448Z,7.27
2017-07-28T21:06:36.548Z,8.10
2017-07-28T21:09:05.698Z,7.93
2017-07-28T21:11:34.725Z,8.40
2017-07-28T21:14:15.460Z,8.10
2017-07-28T21:16:43.805Z,8.80
2017-07-28T21:19:12.997Z,8.03
2017-07-28T21:21:41.314Z,10.07
2017-07-28T21:24:09.669Z,8.73
2017-07-28T21:26:39.100Z,8.73
2017-07-28T21:29:08.974Z,9.37
2017-07-28T21:31:37.882Z,12.20
2017-07-28T21:34:06.763Z,13.00
2017-07-28T21:36:35.218Z,10.97
2017-07-28T21:39:04.425Z,12.40
2017-07-28T21:41:34.161Z,11.70
2017-07-28T21:44:03.010Z,11.43
2017-07-28T21:46:32.184Z,10.40
2017-07-28T21:49:01.162Z,10.80
2017-07-28T21:51:29.949Z,10.70
2017-07-28T21:53:58.658Z,10.40
2017-07-28T21:56:28.166Z,12.00
2017-07-28T21:58:57.315Z,10.33
2017-07-28T22:01:25.631Z,11.57
2017-07-28T22:03:54.576Z,11.00
2017-07-28T22:06:23.672Z,11.70
2017-07-28T22:08:52.798Z,11.93
2017-07-28T22:11:21.447Z,11.37
2017-07-28T22:13:49.848Z,10.83
2017-07-28T22:16:19.265Z,11.70
2017-07-28T22:18:47.631Z,10.30
2017-07-28T22:21:16.728Z,9.80
2017-07-28T22:23:45.301Z,8.97
2017-07-28T22:26:15.429Z,8.87
2017-07-28T22:28:44.150Z,8.37
2017-07-28T22:31:12.529Z,7.97
2017-07-28T22:33:41.918Z,9.70
2017-07-28T22:36:10.236Z,8.40
2017-07-28T22:38:39.470Z,8.60
2017-07-28T22:41:08.401Z,8.10
2017-07-28T22:43:36.987Z,8.03
2017-07-28T22:46:06.710Z,8.17
2017-07-28T22:48:36.549Z,7.90
2017-07-28T22:51:06.444Z,7.37
2017-07-28T22:53:35.822Z,9.87
2017-07-28T22:56:05.435Z,8.90
2017-07-28T22:58:33.794Z,9.70
2017-07-28T23:01:02.280Z,8.83
2017-07-28T23:03:30.605Z,8.70
2017-07-28T23:06:00.512Z,8.70
2017-07-28T23:08:28.894Z,9.23
2017-07-28T23:10:57.204Z,7.50
2017-07-28T23:13:26.906Z,7.17
2017-07-28T23:15:55.201Z,7.83
2017-07-28T23:18:24.934Z,7.13
2017-07-28T23:20:53.235Z,7.17
2017-07-28T23:23:21.578Z,7.00
2017-07-28T23:25:50.785Z,6.53
2017-07-28T23:28:19.826Z,6.70
2017-07-28T23:30:49.050Z,6.80
2017-07-28T23:33:17.340Z,7.90
2017-07-28T23:35:46.057Z,6.73
2017-07-28T23:38:15.369Z,6.20
2017-07-28T23:40:43.925Z,7.73
2017-07-28T23:43:14.211Z,5.80
2017-07-28T23:45:42.665Z,7.67
2017-07-28T23:48:11.025Z,7.07
2017-07-28T23:50:39.481Z,7.90
2017-07-28T23:53:08.872Z,7.37
2017-07-28T23:55:38.351Z,7.07
2017-07-28T23:58:07.590Z,7.57
